createdAt,value
2019-02-09T00:00:37.426Z,-1.99
2019-02-09T00:03:10.516Z,-1.99
2019-02-09T00:05:43.205Z,-1.99
2019-02-09T00:08:16.492Z,-1.95
2019-02-09T00:10:50.382Z,-1.94
2019-02-09T00:13:24.410Z,-1.95
2019-02-09T00:15:58.413Z,-1.94
2019-02-09T00:18:31.407Z,-1.93
2019-02-09T00:21:02.977Z,-1.97
2019-02-09T00:23:34.370Z,-1.96
2019-02-09T00:26:07.584Z,-1.96
2019-02-09T00:28:38.845Z,-1.97
2019-02-09T00:31:10.247Z,-1.96
2019-02-09T00:33:41.519Z,-1.99
2019-02-09T00:36:14.534Z,-1.95
2019-02-09T00:38:48.970Z,-1.90
2019-02-09T00:41:22.571Z,-1.94
2019-02-09T00:43:53.911Z,-1.93
2019-02-09T00:46:27.409Z,-1.95
2019-02-09T00:48:58.658Z,-1.99
2019-02-09T00:51:32.655Z,-2.00
2019-02-09T00:54:06.694Z,-1.98
2019-02-09T00:56:38.463Z,-1.96
2019-02-09T00:59:11.678Z,-2.00
2019-02-09T01:01:44.595Z,-1.95
2019-02-09T01:04:17.790Z,-1.95
2019-02-09T01:06:51.043Z,-1.96
2019-02-09T01:09:23.879Z,-1.98
2019-02-09T01:11:57.813Z,-1.99
2019-02-09T01:14:29.032Z,-1.98
2019-02-09T01:17:02.804Z,-1.98
2019-02-09T01:19:36.842Z,-1.99
2019-02-09T01:22:10.839Z,-1.97
2019-02-09T01:24:42.103Z,-2.01
2019-02-09T01:27:15.691Z,-2.03
2019-02-09T01:29:49.873Z,-2.04
2019-02-09T01:32:23.865Z,-2.03
2019-02-09T01:34:56.084Z,-2.01
2019-02-09T01:37:28.903Z,-1.98
2019-02-09T01:40:00.206Z,-1.94
2019-02-09T01:42:32.204Z,-1.92
2019-02-09T01:45:05.497Z,-1.89
2019-02-09T01:47:37.844Z,-1.83
2019-02-09T01:50:11.975Z,-1.77
2019-02-09T01:52:45.150Z,-1.74
2019-02-09T01:55:18.797Z,-1.74
2019-02-09T01:57:51.953Z,-1.77
2019-02-09T02:00:29.255Z,-1.71
2019-02-09T02:03:02.298Z,-1.77
2019-02-09T02:05:34.101Z,-1.59
2019-02-09T02:08:07.840Z,-1.54
2019-02-09T02:10:39.594Z,-1.52
2019-02-09T02:13:12.862Z,-1.59
2019-02-09T02:15:45.001Z,-1.71
2019-02-09T02:18:17.071Z,-1.59
2019-02-09T02:20:48.337Z,-1.57
2019-02-09T02:23:22.047Z,-1.56
2019-02-09T02:25:53.984Z,-1.49
2019-02-09T02:28:25.999Z,-1.46
2019-02-09T02:30:59.957Z,-1.43
2019-02-09T02:33:31.241Z,-1.38
2019-02-09T02:36:03.510Z,-1.37
2019-02-09T02:38:36.152Z,-1.36
2019-02-09T02:41:08.183Z,-1.38
2019-02-09T02:43:39.445Z,-1.40
2019-02-09T02:46:12.156Z,-1.38
2019-02-09T02:48:43.673Z,-1.33
2019-02-09T02:51:15.016Z,-1.29
2019-02-09T02:53:48.236Z,-1.29
2019-02-09T02:56:23.984Z,-1.30
2019-02-09T02:58:56.240Z,-1.32
2019-02-09T03:01:27.517Z,-1.32
2019-02-09T03:03:59.163Z,-1.35
2019-02-09T03:06:32.182Z,-1.37
2019-02-09T03:09:09.042Z,-1.38
2019-02-09T03:11:42.314Z,-1.34
2019-02-09T03:14:16.086Z,-1.24
2019-02-09T03:16:48.356Z,-1.27
2019-02-09T03:19:22.307Z,-1.24
2019-02-09T03:21:56.195Z,-1.22
2019-02-09T03:24:27.459Z,-1.21
2019-02-09T03:27:01.396Z,-1.22
2019-02-09T03:29:35.501Z,-1.26
2019-02-09T03:32:11.019Z,-1.27
2019-02-09T03:34:45.402Z,-1.29
2019-02-09T03:37:17.122Z,-1.31
2019-02-09T03:39:48.389Z,-1.34
2019-02-09T03:42:24.256Z,-1.36
2019-02-09T03:45:00.020Z,-1.39
2019-02-09T03:47:32.530Z,-1.41
2019-02-09T03:50:08.394Z,-1.44
2019-02-09T03:52:42.407Z,-1.45
2019-02-09T03:55:15.584Z,-1.48
2019-02-09T03:57:48.493Z,-1.48
2019-02-09T04:00:24.421Z,-1.51
2019-02-09T04:02:56.921Z,-1.56
2019-02-09T04:05:30.724Z,-1.59
2019-02-09T04:08:04.825Z,-1.61
2019-02-09T04:10:38.620Z,-1.61
2019-02-09T04:13:13.285Z,-1.64
2019-02-09T04:15:45.682Z,-1.75
2019-02-09T04:18:17.209Z,-1.71
2019-02-09T04:20:48.514Z,-1.75
2019-02-09T04:23:22.167Z,-1.76
2019-02-09T04:25:56.040Z,-1.76
2019-02-09T04:28:29.661Z,-1.74
2019-02-09T04:31:06.543Z,-1.70
2019-02-09T04:33:37.657Z,-1.73
2019-02-09T04:36:08.934Z,-1.72
2019-02-09T04:38:42.740Z,-1.71
2019-02-09T04:41:16.740Z,-1.67
2019-02-09T04:43:50.725Z,-1.65
2019-02-09T04:46:24.769Z,-1.64
2019-02-09T04:49:00.236Z,-1.62
2019-02-09T04:51:32.662Z,-1.62
2019-02-09T04:54:08.245Z,-1.60
2019-02-09T04:56:39.464Z,-1.60
2019-02-09T04:59:11.723Z,-1.59
2019-02-09T05:01:44.892Z,-1.60
2019-02-09T05:04:17.009Z,-1.59
2019-02-09T05:06:49.764Z,-1.59
2019-02-09T05:09:21.455Z,-1.60
2019-02-09T05:11:53.622Z,-1.61
2019-02-09T05:14:25.757Z,-1.62
2019-02-09T05:16:59.762Z,-1.63
2019-02-09T05:19:33.836Z,-1.65
2019-02-09T05:22:07.889Z,-1.67
2019-02-09T05:24:39.227Z,-1.66
2019-02-09T05:27:12.965Z,-1.68
2019-02-09T05:29:44.827Z,-1.69
2019-02-09T05:32:16.863Z,-1.72
2019-02-09T05:34:48.143Z,-1.74
2019-02-09T05:37:19.397Z,-1.75
2019-02-09T05:39:52.859Z,-1.73
2019-02-09T05:42:26.925Z,-1.73
2019-02-09T05:45:00.992Z,-1.72
2019-02-09T05:47:36.555Z,-1.72
2019-02-09T05:50:10.334Z,-1.75
2019-02-09T05:52:41.659Z,-1.77
2019-02-09T05:55:14.271Z,-1.78
2019-02-09T05:57:48.252Z,-1.77
2019-02-09T06:00:34.732Z,-1.77
2019-02-09T06:03:08.230Z,-1.78
2019-02-09T06:05:39.476Z,-1.82
2019-02-09T06:08:13.021Z,-1.84
2019-02-09T06:10:45.294Z,-1.84
2019-02-09T06:13:18.756Z,-1.85
2019-02-09T06:15:52.205Z,-1.86
2019-02-09T06:18:26.212Z,-1.87
2019-02-09T06:20:58.052Z,-1.87
2019-02-09T06:23:30.277Z,-1.94
2019-02-09T06:26:04.533Z,-1.94
2019-02-09T06:28:38.238Z,-1.94
2019-02-09T06:31:11.263Z,-1.91
2019-02-09T06:33:43.203Z,-1.89
2019-02-09T06:36:17.241Z,-1.87
2019-02-09T06:38:51.364Z,-1.86
2019-02-09T06:41:25.253Z,-1.81
2019-02-09T06:44:00.804Z,-1.81
2019-02-09T06:46:34.293Z,-1.78
2019-02-09T06:49:07.476Z,-1.79
2019-02-09T06:51:38.910Z,-1.75
2019-02-09T06:54:12.276Z,-1.71
2019-02-09T06:56:45.235Z,-1.68
2019-02-09T06:59:17.383Z,-1.64
2019-02-09T07:01:51.321Z,-1.58
2019-02-09T07:04:22.622Z,-1.51
2019-02-09T07:06:56.346Z,-1.44
2019-02-09T07:09:31.908Z,-1.40
2019-02-09T07:12:04.833Z,-1.34
2019-02-09T07:14:39.688Z,-1.30
2019-02-09T07:17:13.213Z,-1.32
2019-02-09T07:19:46.282Z,-1.39
2019-02-09T07:22:20.409Z,-1.34
2019-02-09T07:24:55.088Z,-1.28
2019-02-09T07:27:28.321Z,-1.22
2019-02-09T07:30:02.455Z,-1.14
2019-02-09T07:32:33.805Z,-1.06
2019-02-09T07:35:09.155Z,-0.96
2019-02-09T07:37:42.633Z,-0.91
2019-02-09T07:40:16.180Z,-0.80
2019-02-09T07:42:48.511Z,-0.67
2019-02-09T07:45:22.597Z,-0.55
2019-02-09T07:47:54.531Z,-0.46
2019-02-09T07:50:28.864Z,-0.42
2019-02-09T07:53:02.485Z,-0.33
2019-02-09T07:55:36.595Z,-0.23
2019-02-09T07:58:09.603Z,-0.15
2019-02-09T08:00:42.488Z,-0.14
2019-02-09T08:03:14.697Z,-0.12
2019-02-09T08:05:46.076Z,-0.03
2019-02-09T08:08:17.477Z,0.02
2019-02-09T08:10:51.698Z,0.02
2019-02-09T08:13:25.719Z,0.08
2019-02-09T08:15:59.652Z,0.09
2019-02-09T08:18:31.623Z,0.20
2019-02-09T08:21:04.636Z,0.31
2019-02-09T08:23:38.525Z,0.39
2019-02-09T08:26:12.684Z,0.51
2019-02-09T08:28:45.847Z,0.57
2019-02-09T08:31:19.932Z,0.64
2019-02-09T08:33:53.817Z,0.74
2019-02-09T08:36:26.012Z,0.83
2019-02-09T08:38:58.624Z,0.85
2019-02-09T08:41:30.343Z,0.86
2019-02-09T08:44:03.758Z,0.91
2019-02-09T08:46:37.860Z,1.01
2019-02-09T08:49:11.943Z,1.12
2019-02-09T08:51:48.834Z,1.31
2019-02-09T08:54:23.906Z,1.54
2019-02-09T08:56:56.989Z,1.73
2019-02-09T08:59:28.318Z,1.80
2019-02-09T09:02:03.278Z,1.88
2019-02-09T09:04:37.030Z,1.99
2019-02-09T09:07:10.230Z,2.24
2019-02-09T09:09:42.163Z,2.40
2019-02-09T09:12:14.812Z,2.74
2019-02-09T09:14:48.913Z,3.21
2019-02-09T09:17:23.026Z,3.64
2019-02-09T09:19:56.823Z,3.80
2019-02-09T09:22:30.982Z,3.95
2019-02-09T09:25:02.238Z,4.13
2019-02-09T09:27:33.478Z,4.34
2019-02-09T09:30:09.147Z,4.26
2019-02-09T09:32:42.996Z,4.34
2019-02-09T09:35:15.237Z,4.48
2019-02-09T09:37:48.868Z,4.49
2019-02-09T09:40:25.258Z,4.44
2019-02-09T09:42:57.340Z,4.32
2019-02-09T09:45:33.062Z,4.51
2019-02-09T09:48:05.835Z,4.64
2019-02-09T09:50:39.321Z,4.61
2019-02-09T09:53:12.839Z,4.67
2019-02-09T09:55:44.245Z,4.70
2019-02-09T09:58:18.149Z,4.64
2019-02-09T10:00:51.301Z,4.61
2019-02-09T10:03:25.092Z,4.64
2019-02-09T10:05:59.099Z,4.62
2019-02-09T10:08:31.159Z,4.64
2019-02-09T10:11:07.252Z,4.68
2019-02-09T10:13:39.216Z,4.68
2019-02-09T10:16:12.110Z,4.64
2019-02-09T10:18:45.391Z,4.73
2019-02-09T10:21:17.179Z,4.86
2019-02-09T10:23:49.278Z,4.90
2019-02-09T10:26:23.031Z,4.83
2019-02-09T10:28:54.302Z,4.81
2019-02-09T10:31:27.233Z,4.91
2019-02-09T10:33:58.503Z,4.95
2019-02-09T10:36:33.902Z,4.97
2019-02-09T10:39:09.734Z,5.09
2019-02-09T10:41:42.333Z,5.31
2019-02-09T10:44:14.336Z,5.67
2019-02-09T10:46:48.203Z,5.84
2019-02-09T10:49:19.451Z,6.05
2019-02-09T10:51:53.265Z,6.36
2019-02-09T10:54:25.447Z,6.34
2019-02-09T10:56:58.470Z,6.37
2019-02-09T10:59:34.220Z,6.30
2019-02-09T11:02:06.669Z,6.35
2019-02-09T11:04:39.273Z,6.35
2019-02-09T11:07:11.196Z,6.42
2019-02-09T11:09:45.468Z,6.44
2019-02-09T11:12:19.399Z,6.58
2019-02-09T11:14:52.942Z,6.85
2019-02-09T11:17:26.975Z,6.88
2019-02-09T11:20:00.543Z,6.71
2019-02-09T11:22:31.840Z,6.52
2019-02-09T11:25:03.351Z,6.60
2019-02-09T11:27:36.571Z,6.63
2019-02-09T11:30:13.998Z,6.64
2019-02-09T11:32:45.558Z,6.69
2019-02-09T11:35:18.685Z,6.75
2019-02-09T11:37:51.660Z,6.78
2019-02-09T11:40:23.885Z,6.89
2019-02-09T11:42:58.346Z,7.03
2019-02-09T11:45:32.345Z,7.04
2019-02-09T11:48:06.257Z,6.85
2019-02-09T11:50:38.514Z,7.00
2019-02-09T11:53:10.642Z,7.20
2019-02-09T11:55:42.739Z,7.42
2019-02-09T11:58:16.223Z,7.61
2019-02-09T12:00:51.987Z,7.63
2019-02-09T12:03:23.574Z,7.57
2019-02-09T12:05:57.664Z,7.73
2019-02-09T12:08:31.699Z,7.86
2019-02-09T12:11:05.651Z,8.01
2019-02-09T12:13:39.504Z,8.20
2019-02-09T12:16:15.280Z,8.37
2019-02-09T12:18:48.659Z,8.51
2019-02-09T12:21:20.730Z,8.58
2019-02-09T12:23:54.693Z,8.62
2019-02-09T12:26:26.079Z,8.62
2019-02-09T12:28:57.354Z,8.86
2019-02-09T12:31:30.880Z,9.15
2019-02-09T12:34:04.950Z,9.38
2019-02-09T12:36:40.444Z,9.31
2019-02-09T12:39:12.832Z,9.12
2019-02-09T12:41:45.811Z,8.88
2019-02-09T12:44:17.884Z,8.65
2019-02-09T12:46:49.175Z,8.44
2019-02-09T12:49:22.844Z,8.30
2019-02-09T12:51:56.855Z,8.12
2019-02-09T12:54:28.922Z,8.06
2019-02-09T12:57:01.798Z,8.05
2019-02-09T12:59:35.896Z,8.05
2019-02-09T13:02:08.789Z,8.07
2019-02-09T13:04:40.153Z,8.08
2019-02-09T13:07:12.417Z,8.12
2019-02-09T13:09:45.933Z,7.58
2019-02-09T13:12:18.968Z,8.21
2019-02-09T13:14:56.936Z,8.20
2019-02-09T13:17:28.885Z,8.32
2019-02-09T13:20:02.798Z,8.41
2019-02-09T13:22:35.121Z,8.35
2019-02-09T13:25:09.236Z,8.33
2019-02-09T13:27:40.476Z,8.37
2019-02-09T13:30:20.764Z,8.35
2019-02-09T13:32:54.220Z,8.41
2019-02-09T13:35:28.289Z,8.45
2019-02-09T13:38:02.062Z,8.40
2019-02-09T13:40:36.012Z,8.38
2019-02-09T13:43:09.179Z,8.34
2019-02-09T13:45:43.419Z,8.36
2019-02-09T13:48:15.101Z,8.39
2019-02-09T13:50:50.741Z,8.36
2019-02-09T13:53:23.067Z,8.38
2019-02-09T13:55:56.245Z,8.34
2019-02-09T13:58:30.154Z,8.38
2019-02-09T14:01:01.637Z,8.52
2019-02-09T14:03:32.881Z,8.61
2019-02-09T14:06:08.363Z,8.78
2019-02-09T14:08:39.549Z,8.91
2019-02-09T14:11:11.187Z,8.99
2019-02-09T14:13:43.179Z,9.03
2019-02-09T14:16:16.280Z,8.99
2019-02-09T14:18:49.244Z,8.93
2019-02-09T14:21:21.249Z,8.93
2019-02-09T14:23:56.949Z,8.87
2019-02-09T14:26:29.334Z,8.78
2019-02-09T14:29:03.279Z,8.69
2019-02-09T14:31:37.542Z,8.60
2019-02-09T14:34:11.658Z,8.64
2019-02-09T14:36:43.283Z,8.62
2019-02-09T14:39:16.322Z,8.60
2019-02-09T14:41:47.579Z,8.55
2019-02-09T14:44:21.264Z,8.34
2019-02-09T14:46:55.491Z,8.34
2019-02-09T14:49:29.395Z,8.24
2019-02-09T14:52:01.447Z,8.18
2019-02-09T14:54:34.346Z,8.11
2019-02-09T14:57:08.562Z,8.06
2019-02-09T14:59:39.982Z,8.04
2019-02-09T15:02:13.367Z,8.02
2019-02-09T15:04:47.378Z,8.00
2019-02-09T15:07:18.665Z,7.98
2019-02-09T15:09:52.354Z,7.96
2019-02-09T15:12:24.488Z,7.95
2019-02-09T15:14:57.430Z,7.93
2019-02-09T15:17:31.346Z,7.87
2019-02-09T15:20:02.614Z,7.82
2019-02-09T15:22:36.370Z,7.77
2019-02-09T15:25:10.583Z,7.71
2019-02-09T15:27:45.197Z,7.70
2019-02-09T15:30:21.282Z,7.66
2019-02-09T15:32:52.621Z,7.61
2019-02-09T15:35:26.538Z,7.55
2019-02-09T15:38:00.557Z,7.49
2019-02-09T15:40:33.702Z,7.43
2019-02-09T15:43:05.764Z,7.35
2019-02-09T15:45:38.575Z,7.30
2019-02-09T15:48:12.679Z,7.22
2019-02-09T15:50:44.235Z,7.11
2019-02-09T15:53:19.375Z,7.02
2019-02-09T15:55:51.753Z,6.93
2019-02-09T15:58:25.841Z,6.84
2019-02-09T16:00:59.796Z,6.75
2019-02-09T16:03:33.707Z,6.67
2019-02-09T16:06:05.154Z,6.58
2019-02-09T16:08:38.741Z,6.50
2019-02-09T16:11:10.695Z,6.39
2019-02-09T16:13:45.886Z,6.30
2019-02-09T16:16:17.603Z,6.26
2019-02-09T16:18:51.608Z,6.22
2019-02-09T16:21:25.709Z,6.19
2019-02-09T16:23:57.002Z,6.16
2019-02-09T16:26:31.394Z,6.13
2019-02-09T16:29:04.718Z,6.08
2019-02-09T16:31:36.148Z,6.05
2019-02-09T16:34:09.846Z,6.02
2019-02-09T16:36:42.721Z,6.02
2019-02-09T16:39:14.932Z,6.01
2019-02-09T16:41:46.183Z,5.98
2019-02-09T16:44:19.718Z,5.94
2019-02-09T16:46:52.095Z,5.89
2019-02-09T16:49:24.914Z,5.85
2019-02-09T16:52:00.849Z,5.81
2019-02-09T16:54:32.898Z,5.74
2019-02-09T16:57:05.964Z,5.69
2019-02-09T16:59:39.770Z,5.65
2019-02-09T17:02:11.442Z,5.48
2019-02-09T17:04:42.741Z,5.56
2019-02-09T17:07:16.094Z,5.54
2019-02-09T17:09:49.933Z,5.53
2019-02-09T17:12:24.028Z,5.49
2019-02-09T17:14:58.196Z,5.45
2019-02-09T17:17:32.045Z,5.42
2019-02-09T17:20:03.299Z,5.38
2019-02-09T17:22:34.548Z,5.36
2019-02-09T17:25:08.575Z,5.34
2019-02-09T17:27:40.100Z,5.32
2019-02-09T17:30:22.418Z,5.29
2019-02-09T17:32:53.912Z,5.27
2019-02-09T17:35:27.117Z,5.25
2019-02-09T17:38:01.355Z,5.23
2019-02-09T17:40:37.456Z,5.22
2019-02-09T17:43:09.963Z,5.18
2019-02-09T17:45:52.235Z,5.15
2019-02-09T17:48:26.210Z,5.12
2019-02-09T17:51:00.276Z,5.14
2019-02-09T17:53:31.961Z,5.12
2019-02-09T17:56:03.215Z,5.10
2019-02-09T17:58:36.332Z,5.08
2019-02-09T18:01:11.257Z,5.06
2019-02-09T18:03:43.141Z,5.05
2019-02-09T18:06:15.265Z,5.00
2019-02-09T18:08:49.292Z,4.92
2019-02-09T18:11:24.902Z,4.83
2019-02-09T18:13:57.329Z,4.72
2019-02-09T18:16:30.789Z,4.67
2019-02-09T18:19:03.290Z,4.61
2019-02-09T18:21:37.388Z,4.59
2019-02-09T18:24:10.289Z,4.62
2019-02-09T18:26:43.467Z,4.66
2019-02-09T18:29:16.160Z,4.64
2019-02-09T18:31:49.359Z,4.57
2019-02-09T18:34:23.414Z,4.53
2019-02-09T18:36:55.479Z,4.51
2019-02-09T18:39:28.418Z,4.52
2019-02-09T18:42:02.407Z,4.50
2019-02-09T18:44:36.354Z,4.42
2019-02-09T18:47:08.239Z,4.28
2019-02-09T18:49:39.922Z,4.20
2019-02-09T18:52:12.447Z,4.08
2019-02-09T18:54:46.778Z,3.98
2019-02-09T18:57:20.554Z,3.96
2019-02-09T18:59:52.527Z,4.01
2019-02-09T19:02:25.100Z,3.96
2019-02-09T19:05:03.209Z,3.90
2019-02-09T19:07:30.542Z,3.84
2019-02-09T19:10:04.211Z,3.79
2019-02-09T19:12:35.550Z,3.76
2019-02-09T19:15:08.518Z,3.73
2019-02-09T19:17:40.059Z,3.68
2019-02-09T19:20:18.983Z,3.62
2019-02-09T19:22:51.865Z,3.55
2019-02-09T19:25:23.759Z,3.49
2019-02-09T19:27:56.740Z,3.42
2019-02-09T19:30:31.452Z,3.38
2019-02-09T19:33:05.492Z,3.31
2019-02-09T19:35:38.667Z,3.27
2019-02-09T19:38:12.728Z,3.16
2019-02-09T19:40:43.981Z,3.12
2019-02-09T19:43:17.714Z,3.09
2019-02-09T19:45:51.735Z,3.07
2019-02-09T19:48:27.350Z,3.05
2019-02-09T19:50:59.776Z,3.05
2019-02-09T19:53:33.702Z,3.09
2019-02-09T19:56:05.213Z,3.14
2019-02-09T19:58:38.792Z,3.16
2019-02-09T20:01:12.809Z,3.22
2019-02-09T20:03:48.386Z,3.25
2019-02-09T20:06:21.832Z,3.22
2019-02-09T20:08:54.622Z,3.14
2019-02-09T20:11:25.905Z,3.08
2019-02-09T20:13:59.938Z,2.99
2019-02-09T20:16:32.817Z,2.98
2019-02-09T20:19:06.812Z,2.94
2019-02-09T20:21:40.137Z,2.88
2019-02-09T20:24:11.920Z,2.81
2019-02-09T20:26:43.813Z,2.70
2019-02-09T20:29:15.103Z,2.61
2019-02-09T20:31:46.818Z,2.53
2019-02-09T20:34:18.471Z,2.50
2019-02-09T20:36:51.990Z,2.47
2019-02-09T20:39:26.029Z,2.44
2019-02-09T20:42:00.032Z,2.42
2019-02-09T20:44:33.918Z,2.43
2019-02-09T20:47:07.983Z,2.42
2019-02-09T20:49:39.251Z,2.44
2019-02-09T20:52:13.094Z,2.36
2019-02-09T20:54:46.993Z,2.34
2019-02-09T20:57:22.579Z,2.29
2019-02-09T20:59:55.022Z,2.33
2019-02-09T21:02:28.762Z,2.32
2019-02-09T21:05:00.859Z,2.31
2019-02-09T21:07:34.058Z,2.32
2019-02-09T21:10:11.672Z,2.38
2019-02-09T21:12:43.426Z,2.44
2019-02-09T21:15:15.762Z,2.47
2019-02-09T21:17:49.249Z,2.32
2019-02-09T21:20:23.105Z,2.25
2019-02-09T21:22:57.203Z,2.20
2019-02-09T21:25:32.806Z,2.06
2019-02-09T21:28:04.461Z,1.96
2019-02-09T21:30:37.220Z,1.92
2019-02-09T21:33:09.282Z,1.88
2019-02-09T21:35:44.186Z,1.80
2019-02-09T21:38:14.096Z,1.78
2019-02-09T21:40:45.383Z,1.73
2019-02-09T21:43:20.789Z,1.68
2019-02-09T21:45:53.201Z,1.66
2019-02-09T21:48:27.270Z,1.62
2019-02-09T21:51:01.223Z,1.63
2019-02-09T21:53:35.424Z,1.66
2019-02-09T21:56:09.195Z,1.69
2019-02-09T21:58:40.622Z,1.68
2019-02-09T22:01:13.229Z,1.64
2019-02-09T22:03:46.414Z,1.66
2019-02-09T22:06:18.303Z,1.65
2019-02-09T22:08:52.218Z,1.63
2019-02-09T22:11:23.663Z,1.64
2019-02-09T22:13:57.340Z,1.65
2019-02-09T22:16:31.350Z,1.65
2019-02-09T22:19:05.436Z,1.66
2019-02-09T22:21:39.732Z,1.68
2019-02-09T22:24:12.976Z,1.72
2019-02-09T22:26:44.276Z,1.78
2019-02-09T22:29:17.434Z,1.82
2019-02-09T22:31:51.343Z,1.93
2019-02-09T22:34:25.446Z,2.01
2019-02-09T22:36:59.447Z,2.08
2019-02-09T22:39:33.267Z,2.10
2019-02-09T22:42:04.664Z,2.08
2019-02-09T22:44:38.500Z,2.11
2019-02-09T22:47:12.557Z,2.11
2019-02-09T22:49:46.626Z,2.15
2019-02-09T22:52:19.501Z,2.15
2019-02-09T22:54:50.872Z,2.13
2019-02-09T22:57:22.504Z,2.13
2019-02-09T22:59:55.455Z,2.23
2019-02-09T23:02:28.296Z,2.37
2019-02-09T23:05:41.650Z,2.48
2019-02-09T23:08:13.481Z,2.61
2019-02-09T23:10:44.754Z,2.84
2019-02-09T23:13:18.915Z,2.87
2019-02-09T23:15:52.739Z,2.94
2019-02-09T23:18:24.214Z,2.96
2019-02-09T23:20:56.665Z,2.91
2019-02-09T23:23:31.217Z,2.88
2019-02-09T23:26:04.677Z,2.88
2019-02-09T23:28:36.164Z,2.87
2019-02-09T23:31:07.588Z,2.80
2019-02-09T23:33:40.158Z,2.69
2019-02-09T23:36:16.299Z,2.62
2019-02-09T23:38:45.040Z,2.54
2019-02-09T23:41:16.716Z,2.49
2019-02-09T23:43:48.652Z,2.42
2019-02-09T23:46:20.602Z,2.35
2019-02-09T23:48:53.790Z,2.34
2019-02-09T23:51:25.839Z,2.33
2019-02-09T23:53:58.645Z,2.33
2019-02-09T23:56:29.952Z,2.33
2019-02-09T23:59:02.580Z,2.32
